Time;durP1;ratioP1;P1;durP2;ratioP2;P2;SDS_P1;SDS_P2;PMS_P1;PMS_P2;Temp;Humidity;BMP_temperature;BMP_pressure;BME280_temperature;BME280_humidity;BME280_pressure;Samples;Min_cycle;Max_cycle;Signal;HPM_P1;HPM_P2
2022/12/05 06:08:07;;;;;;;45.83;17.35;;;;;;;3.85;86.27;98082.97;5026106;23;20420;-66
2022/12/05 06:10:32;;;;;;;38.85;15.50;;;;;;;3.78;85.64;98095.38;4881088;29;20041;-66
2022/12/05 06:12:58;;;;;;;45.30;16.45;;;;;;;3.76;85.48;98089.44;4895431;29;20032;-65
2022/12/05 06:15:24;;;;;;;41.13;15.30;;;;;;;3.75;84.27;98100.69;4884611;29;20029;-65
2022/12/05 06:17:49;;;;;;;56.78;20.63;;;;;;;3.68;85.14;98101.88;4887827;29;20051;-66
2022/12/05 06:20:14;;;;;;;57.05;19.08;;;;;;;3.68;84.66;98099.25;4880564;29;20481;-65
2022/12/05 06:22:40;;;;;;;45.05;15.98;;;;;;;3.63;84.84;98106.41;4848893;29;20037;-65
2022/12/05 06:25:06;;;;;;;51.92;18.48;;;;;;;3.60;84.58;98107.38;4863527;29;20489;-66
2022/12/05 06:27:31;;;;;;;40.38;13.85;;;;;;;3.55;84.43;98106.75;4875009;29;20028;-66
2022/12/05 06:29:57;;;;;;;37.78;11.90;;;;;;;3.50;84.62;98109.50;4884666;29;20059;-66
2022/12/05 06:32:22;;;;;;;42.63;14.52;;;;;;;3.50;84.28;98117.28;4891377;29;20036;-65
2022/12/05 06:34:47;;;;;;;39.75;13.75;;;;;;;3.42;85.08;98116.78;4880617;29;20088;-66
2022/12/05 06:37:13;;;;;;;68.15;21.10;;;;;;;3.47;84.83;98125.19;4875863;29;20037;-65
2022/12/05 06:39:38;;;;;;;44.38;15.57;;;;;;;3.38;84.74;98125.59;4880050;29;20044;-65
2022/12/05 06:42:04;;;;;;;46.50;15.40;;;;;;;3.37;84.54;98128.22;4861141;29;20025;-65
2022/12/05 06:44:29;;;;;;;36.58;13.00;;;;;;;3.35;84.77;98130.91;4863836;29;20029;-65
2022/12/05 06:46:54;;;;;;;44.75;14.10;;;;;;;3.37;84.69;98136.84;4885409;29;20040;-65
2022/12/05 06:49:21;;;;;;;39.47;14.43;;;;;;;3.38;85.13;98137.72;4892500;29;20396;-65
2022/12/05 06:51:46;;;;;;;36.60;13.00;;;;;;;3.36;84.67;98132.56;4877545;29;20086;-65
2022/12/05 06:54:12;;;;;;;40.55;14.30;;;;;;;3.36;84.66;98135.16;4861773;29;20703;-65
2022/12/05 06:56:37;;;;;;;45.85;17.00;;;;;;;3.36;84.80;98139.50;4862418;29;20092;-66
2022/12/05 06:59:02;;;;;;;50.20;16.98;;;;;;;3.35;84.67;98141.25;4880122;29;20120;-65
2022/12/05 07:01:40;;;;;;;62.55;21.20;;;;;;;3.35;84.87;98141.25;4866594;29;20089;-66
2022/12/05 07:04:12;;;;;;;50.00;17.58;;;;;;;3.35;84.92;98133.47;4876784;29;20495;-67
2022/12/05 07:06:39;;;;;;;48.45;18.73;;;;;;;3.38;85.13;98135.13;4858934;29;20613;-66
2022/12/05 07:09:04;;;;;;;46.55;16.40;;;;;;;3.41;84.46;98141.03;4888625;29;20033;-67
2022/12/05 07:11:30;;;;;;;48.35;17.42;;;;;;;3.43;84.48;98134.00;4882295;29;20108;-66
2022/12/05 07:13:55;;;;;;;39.65;14.50;;;;;;;3.42;83.80;98140.09;4877779;29;20046;-66
2022/12/05 07:16:21;;;;;;;40.97;15.57;;;;;;;3.45;83.87;98152.13;4831460;29;20060;-66
2022/12/05 07:18:46;;;;;;;43.20;15.68;;;;;;;3.45;82.82;98147.75;4852379;29;20024;-66
2022/12/05 07:21:12;;;;;;;41.97;19.10;;;;;;;3.40;83.28;98152.28;4849367;29;20040;-67
2022/12/05 07:23:38;;;;;;;40.08;16.08;;;;;;;3.42;83.12;98155.66;4879913;29;20056;-67
2022/12/05 07:26:07;;;;;;;35.17;13.50;;;;;;;3.42;82.84;98147.88;4862994;29;20450;-67
2022/12/05 07:28:32;;;;;;;43.03;14.80;;;;;;;3.41;82.93;98155.75;4845579;29;20047;-67
2022/12/05 07:31:02;;;;;;;35.05;13.13;;;;;;;3.43;83.47;98149.56;4837925;29;20028;-67
2022/12/05 07:33:28;;;;;;;39.20;13.73;;;;;;;3.45;83.13;98162.47;4844537;29;20021;-67
2022/12/05 07:35:58;;;;;;;43.50;16.40;;;;;;;3.47;83.42;98161.50;4863271;29;20028;-67
2022/12/05 07:38:23;;;;;;;36.20;12.75;;;;;;;3.49;83.53;98164.88;4862359;29;20503;-67
2022/12/05 07:40:49;;;;;;;30.85;12.68;;;;;;;3.50;83.83;98184.72;4879436;29;20040;-67
2022/12/05 07:43:14;;;;;;;36.13;14.48;;;;;;;3.49;83.37;98179.59;4881595;29;20137;-66
2022/12/05 07:45:39;;;;;;;31.92;11.57;;;;;;;3.50;83.27;98182.13;4886030;29;20041;-67
2022/12/05 07:48:05;;;;;;;36.15;12.07;;;;;;;3.54;82.95;98188.91;4880078;29;20503;-66
2022/12/05 07:50:30;;;;;;;30.02;11.27;;;;;;;3.54;82.98;98193.22;4879806;29;20029;-66
2022/12/05 07:52:55;;;;;;;32.83;12.30;;;;;;;3.57;82.99;98198.28;4882045;29;20037;-68
2022/12/05 07:55:21;;;;;;;35.03;12.25;;;;;;;3.54;82.58;98191.50;4884919;29;20401;-66
2022/12/05 07:57:46;;;;;;;31.52;11.52;;;;;;;3.62;83.26;98198.13;4879787;29;20025;-66
2022/12/05 08:00:12;;;;;;;29.50;10.50;;;;;;;3.68;82.90;98205.63;4878269;29;20043;-66
2022/12/05 08:02:38;;;;;;;32.38;11.25;;;;;;;3.73;82.80;98198.50;4863118;29;20041;-64
2022/12/05 08:05:03;;;;;;;34.13;11.32;;;;;;;3.76;82.73;98193.19;4880441;29;20032;-66
2022/12/05 08:07:29;;;;;;;30.00;9.98;;;;;;;3.80;82.64;98192.16;4862739;29;20045;-65
2022/12/05 08:09:54;;;;;;;33.58;11.68;;;;;;;3.85;82.89;98190.19;4879148;29;20032;-65
2022/12/05 08:12:19;;;;;;;30.35;10.77;;;;;;;3.91;82.61;98181.31;4879783;29;20449;-66
2022/12/05 08:14:45;;;;;;;28.67;9.98;;;;;;;3.99;82.32;98182.72;4860276;29;20029;-66
2022/12/05 08:17:10;;;;;;;28.23;10.15;;;;;;;4.08;82.27;98188.41;4882399;29;20025;-65
2022/12/05 08:19:35;;;;;;;33.88;11.05;;;;;;;4.13;81.37;98191.63;4889187;29;20426;-69
2022/12/05 08:22:01;;;;;;;28.10;11.27;;;;;;;4.16;80.65;98191.50;4879454;29;20032;-68
2022/12/05 08:24:26;;;;;;;34.38;11.00;;;;;;;4.21;81.29;98192.16;4876530;29;20024;-68
2022/12/05 08:26:51;;;;;;;29.23;10.00;;;;;;;4.27;80.93;98202.28;4889189;29;20110;-68
2022/12/05 08:29:19;;;;;;;26.40;9.98;;;;;;;4.35;81.06;98202.78;4884510;29;20029;-68
2022/12/05 08:31:46;;;;;;;30.38;10.32;;;;;;;4.40;80.52;98210.38;4867188;29;20036;-67
2022/12/05 08:34:11;;;;;;;31.10;9.75;;;;;;;4.36;80.13;98220.06;4854901;29;20029;-66
2022/12/05 08:36:37;;;;;;;28.13;10.10;;;;;;;4.33;79.76;98220.19;4851367;29;20035;-67
2022/12/05 08:39:04;;;;;;;29.23;10.48;;;;;;;4.32;80.65;98221.09;4870314;29;20115;-68
2022/12/05 08:41:29;;;;;;;28.90;9.70;;;;;;;4.35;80.49;98226.16;4876716;29;20228;-66
2022/12/05 08:43:56;;;;;;;33.35;11.40;;;;;;;4.35;80.12;98231.34;4877900;29;20029;-68
2022/12/05 08:46:21;;;;;;;37.03;11.57;;;;;;;4.35;79.91;98226.16;4861327;29;20036;-68
2022/12/05 08:48:47;;;;;;;32.30;11.60;;;;;;;4.38;80.00;98233.81;4882813;29;20031;-67
2022/12/05 08:51:12;;;;;;;31.30;10.40;;;;;;;4.43;80.06;98229.25;4878630;29;20037;-67
2022/12/05 08:53:38;;;;;;;32.53;10.77;;;;;;;4.47;79.83;98227.38;4846093;29;20127;-68
2022/12/05 08:56:04;;;;;;;33.28;12.32;;;;;;;4.48;79.56;98235.13;4860450;29;20029;-67
2022/12/05 08:58:30;;;;;;;31.73;10.55;;;;;;;4.48;80.03;98235.13;4849010;29;20055;-67
2022/12/05 09:01:09;;;;;;;32.40;11.30;;;;;;;4.44;79.71;98238.75;4878654;29;20470;-66
2022/12/05 09:03:35;;;;;;;32.08;10.43;;;;;;;4.42;79.96;98245.75;4839821;29;20026;-67
2022/12/05 09:06:11;;;;;;;29.88;10.02;;;;;;;4.40;79.83;98255.38;4845781;29;20041;-67
2022/12/05 09:08:37;;;;;;;31.40;9.95;;;;;;;4.41;80.01;98254.47;4882936;29;20060;-68
2022/12/05 09:11:10;;;;;;;33.30;12.68;;;;;;;4.42;79.97;98268.31;4888209;29;20121;-69
2022/12/05 09:13:35;;;;;;;33.00;11.05;;;;;;;4.43;80.18;98277.78;4846444;29;20028;-67
2022/12/05 09:16:11;;;;;;;29.35;10.55;;;;;;;4.45;80.37;98282.00;4860247;29;20033;-67
2022/12/05 09:18:36;;;;;;;101.32;24.60;;;;;;;4.44;79.90;98274.25;4859946;29;20188;-69
2022/12/05 09:21:12;;;;;;;50.47;14.73;;;;;;;4.47;79.88;98271.53;4869681;29;20477;-67
2022/12/05 09:23:37;;;;;;;95.78;24.52;;;;;;;4.45;80.26;98275.97;4846604;29;20029;-67
2022/12/05 09:26:04;;;;;;;53.47;16.50;;;;;;;4.46;80.21;98273.28;4860277;29;20051;-68
2022/12/05 09:28:29;;;;;;;43.22;13.93;;;;;;;4.46;80.47;98278.47;4861596;29;20025;-68
2022/12/05 09:30:56;;;;;;;31.85;11.32;;;;;;;4.55;80.92;98284.22;4863101;29;20405;-65
2022/12/05 09:33:22;;;;;;;29.25;10.90;;;;;;;4.60;80.55;98274.44;4861531;29;20021;-66
2022/12/05 09:35:47;;;;;;;28.05;10.50;;;;;;;4.73;80.46;98273.84;4891186;29;20033;-67
2022/12/05 09:38:12;;;;;;;27.15;10.70;;;;;;;4.80;79.39;98271.84;4878087;29;20029;-67
2022/12/05 09:40:42;;;;;;;31.15;11.00;;;;;;;4.93;79.65;98272.97;4879980;29;20035;-69
2022/12/05 09:43:11;;;;;;;25.05;10.43;;;;;;;5.05;79.31;98275.94;4865264;29;20410;-66
2022/12/05 09:45:39;;;;;;;35.83;12.30;;;;;;;5.14;79.00;98275.53;4850605;29;20459;-67
2022/12/05 09:48:12;;;;;;;31.90;11.82;;;;;;;5.19;79.01;98281.34;4845112;29;20163;-69
2022/12/05 09:50:49;;;;;;;30.50;12.23;;;;;;;5.18;78.98;98290.06;4844521;29;20091;-68
2022/12/05 09:53:36;;;;;;;31.50;11.57;;;;;;;5.16;78.25;98278.88;4867474;29;20114;-66
2022/12/05 09:56:11;;;;;;;32.85;11.98;;;;;;;5.12;78.58;98277.34;4859032;29;20037;-67
2022/12/05 09:58:42;;;;;;;39.95;14.60;;;;;;;5.12;78.56;98278.19;4845947;29;20121;-67
2022/12/05 10:01:41;;;;;;;31.80;11.50;;;;;;;5.13;78.24;98284.25;4877312;29;20104;-68
2022/12/05 10:04:26;;;;;;;29.13;11.75;;;;;;;5.12;78.66;98270.38;4858041;29;20037;-69
2022/12/05 10:07:19;;;;;;;30.83;11.45;;;;;;;5.22;78.63;98278.59;4846773;29;20458;-68
2022/12/05 10:10:03;;;;;;;32.15;10.50;;;;;;;5.30;78.25;98280.84;4863653;29;20025;-68
2022/12/05 10:12:42;;;;;;;26.30;10.23;;;;;;;5.34;78.28;98278.06;4860028;29;20033;-66
2022/12/05 10:15:16;;;;;;;27.35;9.48;;;;;;;5.39;78.15;98276.06;4863346;29;20397;-67
2022/12/05 10:17:45;;;;;;;26.33;9.55;;;;;;;5.40;77.85;98282.97;4876069;29;20041;-65
2022/12/05 10:20:25;;;;;;;30.83;10.68;;;;;;;5.42;78.73;98281.13;4846215;29;20037;-65
2022/12/05 10:22:53;;;;;;;28.63;10.80;;;;;;;5.45;78.61;98275.78;4837172;29;20041;-66
2022/12/05 10:25:20;;;;;;;26.27;10.50;;;;;;;5.46;78.16;98271.44;4847345;29;20089;-64
2022/12/05 10:27:57;;;;;;;30.58;10.45;;;;;;;5.47;77.27;98273.97;4845704;29;20033;-65
2022/12/05 10:30:32;;;;;;;39.92;14.23;;;;;;;5.43;77.23;98271.56;4846030;29;20105;-64
2022/12/05 10:33:01;;;;;;;39.85;16.25;;;;;;;5.44;77.94;98274.13;4835139;29;20049;-65
2022/12/05 10:35:36;;;;;;;35.55;13.93;;;;;;;5.41;77.82;98274.25;4861712;29;20529;-64
2022/12/05 10:38:25;;;;;;;42.55;13.70;;;;;;;5.41;77.52;98274.25;4866110;29;20028;-66
2022/12/05 10:40:53;;;;;;;39.55;17.08;;;;;;;5.41;78.15;98274.25;4844381;29;20113;-64
2022/12/05 10:43:28;;;;;;;38.53;13.82;;;;;;;5.44;78.09;98275.88;4844287;29;20466;-65
2022/12/05 10:45:53;;;;;;;40.05;16.35;;;;;;;5.43;78.49;98280.22;4879536;29;20111;-66
2022/12/05 10:48:19;;;;;;;30.60;13.43;;;;;;;5.46;78.86;98287.88;4860288;29;20100;-65
2022/12/05 10:50:47;;;;;;;41.80;18.25;;;;;;;5.44;78.98;98284.53;4861031;29;20033;-66
2022/12/05 10:53:15;;;;;;;34.85;14.70;;;;;;;5.47;79.17;98283.50;4840257;29;20100;-65
2022/12/05 10:55:45;;;;;;;47.88;19.38;;;;;;;5.45;79.10;98278.41;4848551;29;20037;-64
2022/12/05 10:58:29;;;;;;;37.33;15.15;;;;;;;5.43;79.74;98277.63;4875783;29;20037;-65
2022/12/05 11:01:05;;;;;;;34.53;14.00;;;;;;;5.44;80.09;98279.31;4850975;29;20067;-64
2022/12/05 11:03:34;;;;;;;31.58;12.60;;;;;;;5.48;81.14;98286.06;4849603;29;20037;-64
2022/12/05 11:06:01;;;;;;;26.80;11.00;;;;;;;5.47;80.67;98278.31;4850675;29;20138;-65
2022/12/05 11:08:28;;;;;;;24.80;10.27;;;;;;;5.47;81.28;98284.38;4850841;29;20120;-65
2022/12/05 11:11:01;;;;;;;28.23;11.00;;;;;;;5.44;81.70;98276.72;4871552;29;20453;-65
2022/12/05 11:13:27;;;;;;;28.15;11.35;;;;;;;5.41;81.49;98276.84;4848611;29;20032;-65
2022/12/05 11:15:52;;;;;;;22.92;9.65;;;;;;;5.31;81.21;98267.78;4877973;29;20025;-66
2022/12/05 11:18:23;;;;;;;34.83;13.57;;;;;;;5.31;82.48;98278.19;4882575;29;20033;-66
2022/12/05 11:20:49;;;;;;;28.23;10.95;;;;;;;5.31;82.88;98270.41;4887735;29;20089;-65
2022/12/05 11:23:27;;;;;;;28.55;10.77;;;;;;;5.29;82.50;98268.78;4863415;29;20025;-67
2022/12/05 11:25:53;;;;;;;27.40;10.68;;;;;;;5.28;83.50;98265.34;4878818;29;20504;-66
2022/12/05 11:28:19;;;;;;;26.13;10.48;;;;;;;5.33;83.99;98270.31;4864866;29;20115;-66
2022/12/05 11:31:15;;;;;;;27.35;10.25;;;;;;;5.36;83.18;98262.38;4885707;29;20097;-66
2022/12/05 11:33:40;;;;;;;27.70;10.88;;;;;;;5.41;83.31;98261.25;4878625;29;20062;-66
2022/12/05 11:36:13;;;;;;;27.13;9.68;;;;;;;5.46;83.40;98267.06;4861941;29;20451;-66
2022/12/05 11:38:38;;;;;;;25.35;9.80;;;;;;;5.48;83.17;98265.25;4882953;29;20052;-66
2022/12/05 11:41:22;;;;;;;22.73;9.15;;;;;;;5.53;83.59;98258.97;4885000;29;20037;-66
2022/12/05 11:43:56;;;;;;;23.63;10.07;;;;;;;5.57;83.58;98263.13;4878915;29;20057;-65
2022/12/05 11:46:32;;;;;;;25.23;9.80;;;;;;;5.59;83.33;98250.88;4878157;29;20033;-66
2022/12/05 11:49:16;;;;;;;24.38;10.00;;;;;;;5.65;83.07;98248.00;4847534;29;20051;-65
2022/12/05 11:51:44;;;;;;;24.40;9.43;;;;;;;5.73;83.46;98248.47;4887129;29;20033;-67
2022/12/05 11:54:28;;;;;;;22.98;10.07;;;;;;;5.79;83.81;98242.97;4863051;29;20029;-67
2022/12/05 11:56:56;;;;;;;21.58;8.55;;;;;;;5.88;83.38;98236.47;4862238;29;20052;-67
2022/12/05 11:59:56;;;;;;;20.42;7.93;;;;;;;6.05;82.88;98230.44;4847306;29;20036;-67
2022/12/05 12:02:45;;;;;;;20.25;8.27;;;;;;;6.22;82.35;98225.25;4854750;29;20025;-66
2022/12/05 12:05:20;;;;;;;23.08;8.73;;;;;;;6.34;81.90;98224.63;4879514;29;20021;-65
2022/12/05 12:08:02;;;;;;;18.92;8.18;;;;;;;6.45;81.56;98223.25;4877871;29;20036;-66
2022/12/05 12:10:54;;;;;;;19.92;8.32;;;;;;;6.59;81.06;98220.75;4858738;29;20033;-66
2022/12/05 12:13:25;;;;;;;22.58;8.98;;;;;;;6.69;80.92;98235.00;4857692;29;20036;-66
2022/12/05 12:16:17;;;;;;;21.23;8.07;;;;;;;6.78;79.95;98229.31;4879610;29;20028;-66
2022/12/05 12:18:59;;;;;;;20.00;8.55;;;;;;;6.85;79.85;98228.06;4877840;29;20488;-65
2022/12/05 12:21:55;;;;;;;22.13;8.07;;;;;;;6.87;79.24;98231.41;4866476;29;20047;-65
2022/12/05 12:24:42;;;;;;;19.48;7.85;;;;;;;6.80;79.39;98239.63;4872845;29;20037;-65
2022/12/05 12:27:07;;;;;;;25.27;9.23;;;;;;;6.65;77.93;98243.91;4845628;29;20039;-68
2022/12/05 12:29:57;;;;;;;24.92;10.00;;;;;;;6.56;79.17;98244.38;4878977;29;20028;-66
2022/12/05 12:32:31;;;;;;;23.17;10.00;;;;;;;6.44;79.52;98239.81;4883280;29;20036;-66
2022/12/05 12:35:29;;;;;;;26.77;9.60;;;;;;;6.31;79.87;98240.41;4878926;29;20460;-68
2022/12/05 12:37:54;;;;;;;25.23;10.43;;;;;;;6.19;80.91;98246.22;4861321;29;20045;-67
2022/12/05 12:40:31;;;;;;;24.30;9.63;;;;;;;6.16;81.50;98241.19;4879079;29;20081;-67
2022/12/05 12:43:09;;;;;;;23.52;9.93;;;;;;;6.11;81.45;98248.38;4847695;29;20041;-72
2022/12/05 12:45:44;;;;;;;22.17;8.43;;;;;;;6.06;81.92;98250.38;4875257;29;20033;-67
2022/12/05 12:48:56;;;;;;;22.80;8.88;;;;;;;6.00;82.45;98250.69;4877969;29;20035;-68
2022/12/05 12:51:21;;;;;;;20.92;8.70;;;;;;;5.94;82.18;98242.25;4783957;29;20031;-66
2022/12/05 12:54:02;;;;;;;20.20;7.85;;;;;;;5.93;82.77;98245.78;4769673;29;20042;-66
2022/12/05 12:56:48;;;;;;;22.35;9.18;;;;;;;5.92;82.67;98238.88;4802926;29;20078;-64
2022/12/05 12:59:16;;;;;;;24.15;9.23;;;;;;;5.89;82.69;98241.59;4779196;29;20114;-65
2022/12/05 13:01:42;;;;;;;22.35;8.82;;;;;;;5.85;82.34;98240.06;4803171;29;20141;-65
2022/12/05 13:04:11;;;;;;;20.98;8.48;;;;;;;5.77;81.83;98234.38;4801195;29;20058;-64
2022/12/05 13:06:53;;;;;;;19.13;7.78;;;;;;;5.78;82.21;98230.88;4773904;29;20059;-65
2022/12/05 13:09:49;;;;;;;18.83;7.70;;;;;;;5.75;82.69;98238.84;4810378;29;20050;-65
2022/12/05 13:12:16;;;;;;;20.90;9.45;;;;;;;5.73;82.59;98232.84;4797749;29;20099;-64
2022/12/05 13:14:53;;;;;;;19.92;9.05;;;;;;;5.68;82.31;98225.28;4785533;29;20042;-63
2022/12/05 13:17:19;;;;;;;19.55;8.30;;;;;;;5.70;82.38;98235.59;4788546;29;20043;-63
2022/12/05 13:19:47;;;;;;;21.27;7.93;;;;;;;5.65;82.36;98227.19;4801571;29;20046;-64
2022/12/05 13:22:12;;;;;;;19.75;7.72;;;;;;;5.61;82.35;98223.88;4816212;29;20074;-66
2022/12/05 13:24:38;;;;;;;17.02;7.70;;;;;;;5.64;82.87;98241.09;4844667;29;20025;-64
2022/12/05 13:27:05;;;;;;;20.52;7.82;;;;;;;5.65;83.15;98237.59;4879622;29;20033;-64
2022/12/05 13:29:50;;;;;;;18.90;7.95;;;;;;;5.67;82.88;98233.97;4830624;29;20121;-66
2022/12/05 13:32:41;;;;;;;18.05;7.22;;;;;;;5.69;83.04;98239.13;4856529;29;20036;-66
2022/12/05 13:44:11;;;;;;;18.67;7.22;;;;;;;5.55;83.95;98244.16;4871408;29;20040;-66
2022/12/05 13:46:38;;;;;;;18.27;7.45;;;;;;;5.53;84.26;98246.81;4876129;29;20084;-64
2022/12/05 13:49:06;;;;;;;20.75;8.65;;;;;;;5.50;84.19;98238.31;4862684;29;20035;-64
2022/12/05 13:51:35;;;;;;;20.00;8.43;;;;;;;5.56;86.00;98248.44;4851225;29;20041;-65
2022/12/05 13:54:04;;;;;;;20.80;8.63;;;;;;;5.63;86.03;98249.81;4846099;29;20029;-64
2022/12/05 13:56:52;;;;;;;17.70;7.40;;;;;;;5.67;85.65;98243.53;4877126;29;20028;-65
2022/12/05 13:59:55;;;;;;;18.67;7.70;;;;;;;5.69;86.09;98252.13;4867566;29;20176;-65
2022/12/05 14:02:44;;;;;;;20.52;7.70;;;;;;;5.69;85.88;98252.13;4877082;29;20048;-66
2022/12/05 14:05:12;;;;;;;17.63;7.63;;;;;;;5.71;86.67;98255.50;4860242;29;20030;-65
2022/12/05 14:07:43;;;;;;;18.63;8.15;;;;;;;5.78;87.00;98248.22;4860652;29;20116;-65
2022/12/05 14:10:11;;;;;;;17.75;7.40;;;;;;;5.81;87.16;98246.31;4885376;29;20549;-65
2022/12/05 14:12:51;;;;;;;21.70;8.05;;;;;;;5.83;85.71;98247.09;4845881;29;20041;-65
2022/12/05 14:15:36;;;;;;;21.65;7.85;;;;;;;5.83;86.00;98241.91;4844756;29;20059;-64
2022/12/05 14:18:14;;;;;;;16.45;7.15;;;;;;;5.86;86.21;98244.34;4854419;29;20078;-65
2022/12/05 14:21:06;;;;;;;16.40;7.32;;;;;;;5.90;86.51;98248.50;4845933;29;20508;-65
2022/12/05 14:23:56;;;;;;;19.40;7.97;;;;;;;5.91;85.98;98242.34;4876523;29;20052;-65
2022/12/05 14:26:52;;;;;;;18.00;6.95;;;;;;;5.94;86.00;98239.63;4876911;29;20029;-64
2022/12/05 14:29:37;;;;;;;16.10;6.57;;;;;;;5.94;85.91;98246.59;4881329;29;20037;-65
2022/12/05 14:32:14;;;;;;;20.52;7.95;;;;;;;5.94;85.98;98244.00;4855867;29;20393;-65
2022/12/05 14:34:59;;;;;;;18.95;7.45;;;;;;;5.94;85.88;98241.41;4850478;29;20021;-65
2022/12/05 14:37:26;;;;;;;20.10;7.57;;;;;;;5.92;86.34;98238.88;4863173;29;20561;-66
2022/12/05 14:39:54;;;;;;;17.88;7.45;;;;;;;5.93;86.09;98239.72;4848547;29;20025;-63
2022/12/05 14:42:28;;;;;;;19.02;8.13;;;;;;;5.98;86.59;98242.09;4849596;29;20029;-65
2022/12/05 14:44:56;;;;;;;18.83;8.02;;;;;;;6.02;86.56;98238.41;4891990;29;20064;-65
2022/12/05 14:47:26;;;;;;;16.15;7.70;;;;;;;6.02;86.67;98238.41;4848657;29;20084;-65
2022/12/05 14:50:23;;;;;;;20.77;8.15;;;;;;;6.05;86.34;98243.47;4849276;29;20442;-65
2022/12/05 14:53:19;;;;;;;16.40;6.85;;;;;;;6.06;85.97;98239.97;4882087;29;20028;-64
2022/12/05 14:56:08;;;;;;;22.23;8.23;;;;;;;6.04;86.49;98242.63;4886531;29;20398;-64
2022/12/05 14:59:06;;;;;;;17.25;7.47;;;;;;;6.04;86.22;98240.03;4852291;29;20045;-64
2022/12/05 15:01:44;;;;;;;23.30;10.23;;;;;;;5.98;85.41;98244.69;4875917;29;20024;-64
2022/12/05 15:04:34;;;;;;;23.38;9.43;;;;;;;5.90;85.04;98245.03;4872600;29;20029;-65
2022/12/05 15:07:16;;;;;;;24.48;8.88;;;;;;;5.83;85.33;98244.50;4858439;29;20041;-63
2022/12/05 15:10:24;;;;;;;22.88;9.52;;;;;;;5.83;85.92;98244.50;4867938;29;20516;-66
2022/12/05 15:12:52;;;;;;;20.83;9.07;;;;;;;5.92;86.83;98244.09;4864919;29;20123;-63
2022/12/05 15:15:30;;;;;;;26.08;10.65;;;;;;;5.89;85.46;98244.22;4876784;29;20543;-63
2022/12/05 15:17:58;;;;;;;42.75;16.73;;;;;;;5.85;84.74;98249.63;4849799;29;20055;-62
2022/12/05 15:20:38;;;;;;;36.83;15.75;;;;;;;5.76;84.78;98248.31;4853300;29;20048;-64
2022/12/05 15:23:42;;;;;;;44.60;17.50;;;;;;;5.67;85.62;98247.00;4870716;29;20136;-64
2022/12/05 15:26:27;;;;;;;44.53;17.48;;;;;;;5.60;85.40;98249.97;4880157;29;20035;-65
2022/12/05 15:28:57;;;;;;;36.45;15.07;;;;;;;5.57;85.41;98252.72;4865444;29;20035;-63
2022/12/05 15:31:22;;;;;;;53.35;21.23;;;;;;;5.55;85.79;98251.97;4887165;29;20081;-64
2022/12/05 15:33:51;;;;;;;50.83;20.02;;;;;;;5.50;85.35;98256.53;4852151;29;20446;-64
2022/12/05 15:36:18;;;;;;;45.22;18.55;;;;;;;5.48;85.97;98254.00;4846736;29;20493;-64
2022/12/05 15:38:44;;;;;;;30.90;13.52;;;;;;;5.46;85.74;98261.03;4848280;29;20485;-63
2022/12/05 15:41:16;;;;;;;26.02;9.80;;;;;;;5.40;85.10;98254.38;4859849;29;20029;-64
2022/12/05 15:43:44;;;;;;;85.57;27.85;;;;;;;5.37;85.18;98257.09;4872178;29;20033;-66
2022/12/05 15:46:23;;;;;;;109.22;38.80;;;;;;;5.37;85.76;98264.91;4865388;29;20033;-65
2022/12/05 15:48:52;;;;;;;91.80;32.42;;;;;;;5.35;85.56;98263.28;4863574;29;20033;-64
2022/12/05 15:51:18;;;;;;;124.53;45.22;;;;;;;5.31;85.06;98272.16;4879525;29;20065;-63
2022/12/05 15:53:48;;;;;;;45.55;22.02;;;;;;;5.29;84.63;98273.97;4862415;29;20124;-63
2022/12/05 15:56:16;;;;;;;24.27;11.85;;;;;;;5.21;84.43;98279.53;4858265;29;20461;-64
2022/12/05 15:59:26;;;;;;;33.78;15.52;;;;;;;5.20;84.85;98276.09;4846112;29;20033;-63
2022/12/05 16:01:56;;;;;;;29.80;13.77;;;;;;;5.19;84.62;98281.34;4802111;29;20051;-64
2022/12/05 16:04:28;;;;;;;24.55;11.98;;;;;;;5.14;84.34;98284.16;4788249;29;20607;-65
2022/12/05 16:06:54;;;;;;;20.70;8.98;;;;;;;5.13;84.11;98285.09;4801893;29;20527;-65
2022/12/05 16:09:21;;;;;;;17.23;8.60;;;;;;;5.12;84.19;98287.75;4802770;29;20081;-66
2022/12/05 16:11:56;;;;;;;18.85;9.57;;;;;;;5.04;84.25;98287.25;4787645;29;20039;-64
2022/12/05 16:14:22;;;;;;;16.25;8.38;;;;;;;5.02;84.33;98284.69;4803430;29;20092;-64
2022/12/05 16:16:47;;;;;;;19.15;9.27;;;;;;;5.02;84.86;98291.66;4771322;29;20035;-62
2022/12/05 16:19:15;;;;;;;16.35;8.40;;;;;;;4.98;84.95;98286.59;4773123;29;20053;-63
2022/12/05 16:21:44;;;;;;;20.08;9.43;;;;;;;5.02;85.24;98292.50;4795573;29;20116;-65
2022/12/05 16:24:20;;;;;;;16.38;8.13;;;;;;;4.96;84.61;98296.25;4788345;29;20043;-62
2022/12/05 16:26:56;;;;;;;15.88;8.05;;;;;;;4.93;84.03;98303.31;4810393;29;20045;-64
2022/12/05 16:29:27;;;;;;;16.88;8.18;;;;;;;4.86;84.31;98300.16;4789723;29;20043;-63
2022/12/05 16:31:59;;;;;;;15.98;7.93;;;;;;;4.89;84.54;98296.59;4809532;29;20043;-64
2022/12/05 16:34:25;;;;;;;14.25;7.00;;;;;;;4.91;84.99;98312.94;4801227;29;20164;-65
2022/12/05 16:36:50;;;;;;;17.45;8.23;;;;;;;4.92;85.36;98301.63;4809870;29;20502;-65
2022/12/05 16:39:16;;;;;;;19.73;9.85;;;;;;;4.92;85.23;98305.09;4841083;29;20037;-63
2022/12/05 16:41:42;;;;;;;16.55;7.68;;;;;;;4.82;84.48;98301.19;4878722;29;20041;-64
2022/12/05 16:44:27;;;;;;;22.02;9.25;;;;;;;4.88;84.58;98308.72;4852972;29;20167;-63
2022/12/05 16:46:53;;;;;;;20.55;9.57;;;;;;;4.86;84.54;98301.91;4860288;29;20493;-64
2022/12/05 16:49:34;;;;;;;19.77;9.57;;;;;;;4.87;84.65;98314.81;4839095;29;20513;-64
2022/12/05 16:52:12;;;;;;;16.95;8.40;;;;;;;4.87;83.81;98307.03;4863880;29;20124;-65
2022/12/05 16:54:38;;;;;;;30.10;12.45;;;;;;;4.79;83.58;98309.13;4845207;29;20054;-66
2022/12/05 16:57:03;;;;;;;25.60;11.27;;;;;;;4.79;84.34;98308.28;4859184;29;20033;-65
2022/12/05 16:59:33;;;;;;;68.40;33.75;;;;;;;4.80;83.88;98308.22;4856953;29;20020;-65
2022/12/05 17:02:00;;;;;;;56.08;28.98;;;;;;;4.80;83.91;98307.38;4853513;29;20108;-65
2022/12/05 17:04:26;;;;;;;53.03;24.67;;;;;;;4.74;83.56;98308.47;4847273;29;20073;-64
2022/12/05 17:06:51;;;;;;;52.53;23.17;;;;;;;4.75;83.91;98317.97;4876280;29;20955;-64
2022/12/05 17:09:17;;;;;;;34.90;17.50;;;;;;;4.75;84.38;98317.97;4878455;29;20047;-65
2022/12/05 17:11:43;;;;;;;19.77;8.52;;;;;;;4.73;83.42;98327.56;4880237;29;20092;-64
2022/12/05 17:14:11;;;;;;;17.98;8.25;;;;;;;4.73;84.00;98319.78;4840955;29;20017;-65
2022/12/05 17:16:37;;;;;;;23.25;9.23;;;;;;;4.76;84.50;98327.44;4848252;29;20047;-64
2022/12/05 17:19:02;;;;;;;21.88;10.18;;;;;;;4.76;84.54;98322.25;4878484;29;20609;-65
2022/12/05 17:21:31;;;;;;;44.90;17.27;;;;;;;4.77;84.88;98326.53;4877175;29;20021;-65
2022/12/05 17:23:57;;;;;;;59.97;20.70;;;;;;;4.73;84.16;98323.22;4845598;29;20029;-65
2022/12/05 17:26:22;;;;;;;42.03;15.63;;;;;;;4.73;84.50;98327.56;4877674;29;20556;-65
2022/12/05 17:28:47;;;;;;;54.58;17.58;;;;;;;4.72;84.72;98331.09;4844867;29;20041;-68
2022/12/05 17:31:15;;;;;;;134.43;40.33;;;;;;;4.73;85.19;98328.41;4864221;29;20551;-64
2022/12/05 17:33:41;;;;;;;101.22;38.63;;;;;;;4.72;85.25;98325.91;4864383;29;20020;-65
2022/12/05 17:36:07;;;;;;;39.35;20.48;;;;;;;4.70;85.41;98332.91;4860765;29;20514;-65
2022/12/05 17:38:32;;;;;;;31.05;15.20;;;;;;;4.67;85.50;98333.03;4877026;29;20485;-67
2022/12/05 17:40:57;;;;;;;27.70;14.15;;;;;;;4.65;85.65;98325.31;4860758;29;20033;-64
2022/12/05 17:43:23;;;;;;;35.70;25.02;;;;;;;4.63;85.73;98334.06;4857554;29;20475;-65
2022/12/05 17:45:48;;;;;;;28.45;19.25;;;;;;;4.63;86.05;98334.06;4858609;29;20039;-64
2022/12/05 17:48:14;;;;;;;22.48;13.63;;;;;;;4.63;85.74;98334.06;4880481;29;20037;-65
2022/12/05 17:50:43;;;;;;;21.83;12.57;;;;;;;4.61;85.71;98322.91;4845894;29;20029;-65
2022/12/05 17:53:13;;;;;;;29.98;16.77;;;;;;;4.59;85.78;98327.31;4842716;29;20017;-68
2022/12/05 17:55:38;;;;;;;25.65;14.38;;;;;;;4.60;85.82;98316.84;4844683;29;20080;-64
2022/12/05 17:58:04;;;;;;;21.67;12.77;;;;;;;4.59;86.04;98320.38;4887242;29;20036;-64
2022/12/05 18:00:29;;;;;;;19.27;11.10;;;;;;;4.61;86.43;98322.91;4876670;29;20029;-64
2022/12/05 18:02:54;;;;;;;27.98;17.45;;;;;;;4.56;85.65;98320.50;4888172;29;20064;-70
2022/12/05 18:05:20;;;;;;;21.38;11.93;;;;;;;4.55;86.31;98317.97;4877497;29;20033;-65
2022/12/05 18:07:45;;;;;;;23.33;10.77;;;;;;;4.56;86.23;98309.28;4868348;29;20084;-64